createdAt,value
2022-09-20T00:03:16.117Z,100675.91
2022-09-20T00:08:15.314Z,100706.81
2022-09-20T00:13:15.123Z,100711.44
2022-09-20T00:18:09.151Z,100706.22
2022-09-20T00:23:02.740Z,100697.13
2022-09-20T00:27:56.495Z,100716.03
2022-09-20T00:32:49.055Z,100709.88
2022-09-20T00:37:43.679Z,100710.97
2022-09-20T00:42:36.942Z,100714.22
2022-09-20T00:47:38.706Z,100735.69
2022-09-20T00:52:33.396Z,100721.50
2022-09-20T00:57:26.865Z,100721.88
2022-09-20T01:03:00.468Z,100736.06
2022-09-20T01:07:55.650Z,100708.53
2022-09-20T01:12:50.772Z,100722.84
2022-09-20T01:17:52.436Z,100719.22
2022-09-20T01:23:02.268Z,100729.38
2022-09-20T01:27:56.136Z,100729.03
2022-09-20T01:33:07.768Z,100720.91
2022-09-20T01:38:38.664Z,100725.50
2022-09-20T01:43:43.892Z,100721.16
2022-09-20T01:48:43.216Z,100715.94
2022-09-20T01:54:09.011Z,100724.31
2022-09-20T01:59:32.815Z,100726.34
2022-09-20T02:05:27.734Z,100723.09
2022-09-20T02:10:41.643Z,100715.56
2022-09-20T02:15:50.130Z,100736.41
2022-09-20T02:20:55.319Z,100747.84
2022-09-20T02:26:06.480Z,100741.75
2022-09-20T02:31:31.072Z,100743.59
2022-09-20T02:36:53.106Z,100744.69
2022-09-20T02:42:18.219Z,100744.44
2022-09-20T02:47:22.910Z,100735.94
2022-09-20T02:52:39.411Z,100774.13
2022-09-20T02:57:51.982Z,100757.28
2022-09-20T03:03:14.647Z,100772.34
2022-09-20T03:08:13.536Z,100778.63
2022-09-20T03:13:31.027Z,100774.75
2022-09-20T03:18:27.214Z,100755.72
2022-09-20T03:23:25.840Z,100782.63
2022-09-20T03:28:56.174Z,100765.16
2022-09-20T03:34:10.210Z,100780.44
2022-09-20T03:39:15.317Z,100783.00
2022-09-20T03:44:15.178Z,100755.31
2022-09-20T03:49:26.701Z,100776.91
2022-09-20T03:55:03.280Z,100773.88
2022-09-20T04:00:14.542Z,100770.25
2022-09-20T04:05:24.936Z,100763.94
2022-09-20T04:10:42.359Z,100758.59
2022-09-20T04:16:10.595Z,100740.84
2022-09-20T04:21:05.963Z,100763.66
2022-09-20T04:26:01.563Z,100753.44
2022-09-20T04:31:03.570Z,100750.91
2022-09-20T04:36:31.723Z,100768.13
2022-09-20T04:41:53.226Z,100774.41
2022-09-20T04:47:25.623Z,100781.47
2022-09-20T04:53:04.196Z,100774.41
2022-09-20T04:58:27.540Z,100782.69
2022-09-20T05:03:26.739Z,100783.63
2022-09-20T05:08:45.817Z,100790.31
2022-09-20T05:14:13.947Z,100802.03
2022-09-20T05:19:13.136Z,100776.13
2022-09-20T05:24:38.852Z,100803.59
2022-09-20T05:29:53.555Z,100788.75
2022-09-20T05:35:02.226Z,100803.53
2022-09-20T05:40:16.656Z,100810.59
2022-09-20T05:45:40.881Z,100813.13
2022-09-20T05:51:03.092Z,100818.69
2022-09-20T05:56:21.269Z,100814.69
2022-09-20T06:01:38.415Z,100825.34
2022-09-20T06:06:52.950Z,100834.53
2022-09-20T06:11:54.964Z,100844.47
2022-09-20T06:17:02.302Z,100844.97
2022-09-20T06:21:59.881Z,100835.69
2022-09-20T06:27:03.759Z,100859.63
2022-09-20T06:31:57.047Z,100847.19
2022-09-20T06:37:18.238Z,100837.50
2022-09-20T06:42:11.409Z,100846.75
2022-09-20T06:47:09.004Z,100871.38
2022-09-20T06:52:23.823Z,100864.84
2022-09-20T06:57:20.595Z,100847.34
2022-09-20T07:02:14.635Z,100874.66
2022-09-20T07:07:09.721Z,100868.19
2022-09-20T07:12:04.688Z,100863.19
2022-09-20T07:16:58.018Z,100882.88
2022-09-20T07:21:52.351Z,100864.97
2022-09-20T07:27:02.941Z,100887.19
2022-09-20T07:31:57.375Z,100897.28
2022-09-20T07:36:50.856Z,100885.09
2022-09-20T07:41:51.444Z,100911.09
2022-09-20T07:46:48.668Z,100908.78
2022-09-20T07:51:41.903Z,100897.13
2022-09-20T07:56:35.385Z,100913.50
2022-09-20T08:01:28.663Z,100927.13
2022-09-20T08:06:22.639Z,100938.63
2022-09-20T08:11:18.715Z,100923.28
2022-09-20T08:16:15.050Z,100934.53
2022-09-20T08:21:10.326Z,100946.91
2022-09-20T08:26:05.445Z,100936.97
2022-09-20T08:31:08.116Z,100938.81
2022-09-20T08:36:01.716Z,100952.63
2022-09-20T08:40:58.928Z,100949.00
2022-09-20T08:45:52.623Z,100933.16
2022-09-20T08:50:47.824Z,100938.50
2022-09-20T08:55:42.206Z,100920.34
2022-09-20T09:00:38.005Z,100944.59
2022-09-20T09:05:50.068Z,100924.56
2022-09-20T09:10:56.448Z,100938.44
2022-09-20T09:15:57.323Z,100934.63
2022-09-20T09:20:51.497Z,100928.41
2022-09-20T09:25:45.519Z,100936.41
2022-09-20T09:30:42.931Z,100931.00
2022-09-20T09:35:37.725Z,100921.16
2022-09-20T09:40:33.009Z,100909.47
2022-09-20T09:45:41.782Z,100911.53
2022-09-20T09:50:35.715Z,100906.19
2022-09-20T09:55:38.834Z,100901.41
2022-09-20T10:00:34.582Z,100908.97
2022-09-20T10:05:40.060Z,100904.63
2022-09-20T10:10:50.059Z,100895.75
2022-09-20T10:16:04.409Z,100890.41
2022-09-20T10:21:41.810Z,100889.78
2022-09-20T10:26:59.650Z,100887.25
2022-09-20T10:32:07.394Z,100883.72
2022-09-20T10:37:02.131Z,100855.41
2022-09-20T10:42:15.554Z,100874.88
2022-09-20T10:47:22.719Z,100868.81
2022-09-20T10:52:36.761Z,100869.06
2022-09-20T10:57:50.887Z,100866.28
2022-09-20T11:03:12.578Z,100860.81
2022-09-20T11:08:23.068Z,100834.97
2022-09-20T11:13:27.526Z,100866.16
2022-09-20T11:18:25.424Z,100839.00
2022-09-20T11:23:28.306Z,100823.22
2022-09-20T11:28:21.551Z,100839.16
2022-09-20T11:33:30.579Z,100831.06
2022-09-20T11:38:29.073Z,100828.75
2022-09-20T11:43:26.927Z,100825.94
2022-09-20T11:48:28.320Z,100815.75
2022-09-20T11:53:39.172Z,100802.09
2022-09-20T11:58:34.291Z,100792.47
2022-09-20T12:03:39.355Z,100798.63
2022-09-20T12:08:35.604Z,100792.56
2022-09-20T12:13:29.947Z,100779.41
2022-09-20T12:18:55.048Z,100778.88
2022-09-20T12:23:54.067Z,100780.38
2022-09-20T12:28:56.181Z,100762.06
2022-09-20T12:34:01.876Z,100763.97
2022-09-20T12:38:59.220Z,100763.59
2022-09-20T12:43:55.256Z,100766.13
2022-09-20T12:48:48.621Z,100758.78
2022-09-20T12:53:41.875Z,100747.25
2022-09-20T12:58:36.551Z,100748.00
2022-09-20T13:03:47.728Z,100762.50
2022-09-20T13:08:43.699Z,100745.22
2022-09-20T13:13:59.824Z,100712.22
2022-09-20T13:19:05.862Z,100715.63
2022-09-20T13:24:00.108Z,100709.56
2022-09-20T13:28:59.116Z,100712.00
2022-09-20T13:33:52.849Z,100713.97
2022-09-20T13:38:48.466Z,100703.66
2022-09-20T13:43:42.059Z,100689.75
2022-09-20T13:48:35.680Z,100696.19
2022-09-20T13:53:49.953Z,100682.22
2022-09-20T13:58:43.252Z,100695.00
2022-09-20T14:03:37.775Z,100704.69
2022-09-20T14:08:36.691Z,100683.25
2022-09-20T14:13:32.211Z,100659.97
2022-09-20T14:18:26.182Z,100668.72
2022-09-20T14:23:27.318Z,100677.78
2022-09-20T14:28:26.762Z,100666.53
2022-09-20T14:33:22.070Z,100630.88
2022-09-20T14:38:16.665Z,100664.38
2022-09-20T14:43:32.049Z,100651.97
2022-09-20T14:48:25.237Z,100654.78
2022-09-20T14:53:27.573Z,100655.75
2022-09-20T14:58:21.552Z,100655.63
2022-09-20T15:03:18.002Z,100654.53
2022-09-20T15:08:16.339Z,100653.09
2022-09-20T15:13:11.952Z,100628.47
2022-09-20T15:18:13.560Z,100634.88
2022-09-20T15:23:07.184Z,100656.13
2022-09-20T15:28:01.675Z,100656.72
2022-09-20T15:32:57.668Z,100650.66
2022-09-20T15:37:53.456Z,100625.81
2022-09-20T15:42:47.888Z,100624.00
2022-09-20T15:47:42.147Z,100629.47
2022-09-20T15:52:37.590Z,100646.19
2022-09-20T15:57:34.239Z,100651.50
2022-09-20T16:02:28.089Z,100615.78
2022-09-20T16:07:43.472Z,100647.66
2022-09-20T16:12:36.766Z,100618.91
2022-09-20T16:17:48.915Z,100628.00
2022-09-20T16:22:42.868Z,100618.69
2022-09-20T16:27:36.784Z,100626.91
2022-09-20T16:32:31.150Z,100622.91
2022-09-20T16:37:25.576Z,100592.84
2022-09-20T16:42:19.504Z,100624.13
2022-09-20T16:47:23.024Z,100612.75
2022-09-20T16:52:16.501Z,100623.19
2022-09-20T16:57:10.132Z,100631.03
2022-09-20T17:02:03.733Z,100629.00
2022-09-20T17:06:57.752Z,100637.97
2022-09-20T17:11:52.150Z,100640.75
2022-09-20T17:16:50.063Z,100647.56
2022-09-20T17:21:49.772Z,100643.31
2022-09-20T17:26:45.585Z,100631.66
2022-09-20T17:31:40.471Z,100626.81
2022-09-20T17:36:51.547Z,100637.44
2022-09-20T17:41:45.736Z,100665.75
2022-09-20T17:46:40.846Z,100669.97
2022-09-20T17:51:37.189Z,100667.75
2022-09-20T17:56:32.176Z,100664.59
2022-09-20T18:01:27.990Z,100683.56
2022-09-20T18:06:30.013Z,100658.69
2022-09-20T18:11:27.535Z,100692.28
2022-09-20T18:16:25.239Z,100692.28
2022-09-20T18:21:22.999Z,100697.50
2022-09-20T18:26:25.098Z,100707.44
2022-09-20T18:31:19.636Z,100717.88
2022-09-20T18:36:13.595Z,100717.41
2022-09-20T18:41:07.350Z,100730.47
2022-09-20T18:46:01.398Z,100733.75
2022-09-20T18:51:03.672Z,100742.97
2022-09-20T18:56:06.640Z,100747.34
2022-09-20T19:01:33.657Z,100773.16
2022-09-20T19:06:33.238Z,100749.03
2022-09-20T19:11:56.175Z,100742.97
2022-09-20T19:16:57.095Z,100768.44
2022-09-20T19:21:59.602Z,100778.00
2022-09-20T19:26:55.236Z,100771.53
2022-09-20T19:31:52.650Z,100776.44
2022-09-20T19:36:54.910Z,100787.09
2022-09-20T19:42:30.278Z,100789.16
2022-09-20T19:47:58.795Z,100799.34
2022-09-20T19:52:58.850Z,100796.50
2022-09-20T19:57:55.779Z,100777.78
2022-09-20T20:02:49.493Z,100805.72
2022-09-20T20:08:05.147Z,100806.91
2022-09-20T20:13:40.187Z,100807.78
2022-09-20T20:18:51.728Z,100805.09
2022-09-20T20:24:05.246Z,100796.72
2022-09-20T20:28:58.593Z,100818.53
2022-09-20T20:33:52.494Z,100817.56
2022-09-20T20:38:49.954Z,100829.31
2022-09-20T20:43:43.902Z,100827.50
2022-09-20T20:48:38.680Z,100832.97
2022-09-20T20:53:40.893Z,100815.81
2022-09-20T20:58:36.735Z,100816.78
2022-09-20T21:03:31.535Z,100826.75
2022-09-20T21:08:25.068Z,100830.13
2022-09-20T21:13:18.352Z,100852.59
2022-09-20T21:18:11.864Z,100840.91
2022-09-20T21:23:05.903Z,100832.78
2022-09-20T21:27:59.714Z,100854.03
2022-09-20T21:32:57.387Z,100861.16
2022-09-20T21:37:51.366Z,100879.47
2022-09-20T21:42:45.616Z,100877.75
2022-09-20T21:47:39.893Z,100853.34
2022-09-20T21:52:33.788Z,100889.41
2022-09-20T21:57:29.209Z,100889.84
2022-09-20T22:02:23.791Z,100894.00
2022-09-20T22:07:17.171Z,100902.09
2022-09-20T22:12:11.069Z,100907.44
2022-09-20T22:17:06.155Z,100903.72
2022-09-20T22:22:04.320Z,100895.66
2022-09-20T22:26:58.165Z,100900.66
2022-09-20T22:31:52.047Z,100880.22
2022-09-20T22:36:45.650Z,100927.81
2022-09-20T22:41:41.904Z,100917.13
2022-09-20T22:46:35.370Z,100913.84
2022-09-20T22:51:31.824Z,100921.75
2022-09-20T22:56:29.950Z,100921.84
2022-09-20T23:01:22.847Z,100924.63
2022-09-20T23:06:24.429Z,100909.81
2022-09-20T23:11:18.822Z,100923.56
2022-09-20T23:16:14.794Z,100915.28
2022-09-20T23:21:09.535Z,100933.13
2022-09-20T23:26:07.895Z,100928.16
2022-09-20T23:31:06.388Z,100930.06
2022-09-20T23:35:59.514Z,100937.22
2022-09-20T23:40:53.143Z,100917.41
2022-09-20T23:45:47.457Z,100935.31
2022-09-20T23:50:44.017Z,100923.50
2022-09-20T23:55:37.344Z,100926.16
